createdAt,value
2019-05-05T00:00:14.416Z,7.03
2019-05-05T00:03:14.758Z,8.60
2019-05-05T00:06:07.321Z,7.90
2019-05-05T00:08:57.563Z,8.10
2019-05-05T00:12:08.997Z,7.57
2019-05-05T00:15:19.668Z,7.20
2019-05-05T00:18:10.913Z,7.17
2019-05-05T00:21:01.965Z,7.67
2019-05-05T00:23:55.352Z,7.50
2019-05-05T00:26:46.064Z,7.60
2019-05-05T00:29:35.526Z,8.10
2019-05-05T00:32:25.186Z,8.07
2019-05-05T00:35:16.770Z,7.63
2019-05-05T00:38:06.371Z,7.30
2019-05-05T00:40:55.296Z,6.67
2019-05-05T00:43:45.296Z,7.23
2019-05-05T00:46:51.108Z,7.03
2019-05-05T00:49:47.198Z,7.17
2019-05-05T00:52:35.149Z,7.37
2019-05-05T00:55:24.759Z,7.40
2019-05-05T00:58:16.593Z,7.57
2019-05-05T01:01:18.379Z,7.20
2019-05-05T01:04:10.440Z,6.37
2019-05-05T01:07:01.010Z,6.83
2019-05-05T01:09:50.590Z,6.90
2019-05-05T01:12:42.325Z,7.60
2019-05-05T01:15:31.994Z,6.97
2019-05-05T01:18:24.562Z,7.30
2019-05-05T01:21:15.590Z,7.70
2019-05-05T01:24:09.035Z,7.30
2019-05-05T01:26:58.475Z,6.73
2019-05-05T01:29:47.746Z,5.80
2019-05-05T01:32:41.594Z,6.23
2019-05-05T01:35:34.694Z,5.83
2019-05-05T01:38:35.528Z,5.30
2019-05-05T01:41:38.706Z,6.30
2019-05-05T01:44:31.664Z,5.50
2019-05-05T01:47:25.405Z,5.53
2019-05-05T01:50:21.243Z,5.20
2019-05-05T01:53:07.840Z,5.03
2019-05-05T01:55:58.376Z,5.23
2019-05-05T01:58:48.246Z,5.27
2019-05-05T02:01:37.273Z,5.13
2019-05-05T02:04:29.679Z,5.30
2019-05-05T02:07:19.750Z,5.20
2019-05-05T02:10:11.158Z,5.90
2019-05-05T02:13:01.174Z,6.30
2019-05-05T02:15:51.340Z,5.90
2019-05-05T02:18:42.023Z,5.33
2019-05-05T02:21:30.842Z,5.60
2019-05-05T02:24:25.361Z,4.90
2019-05-05T02:27:19.874Z,4.53
2019-05-05T02:30:26.618Z,4.80
2019-05-05T02:33:16.869Z,4.70
2019-05-05T02:36:08.931Z,5.20
2019-05-05T02:38:59.481Z,5.90
2019-05-05T02:41:49.628Z,5.83
2019-05-05T02:44:41.878Z,6.20
2019-05-05T02:47:59.128Z,5.40
2019-05-05T02:51:00.046Z,5.63
2019-05-05T02:53:49.093Z,5.40
2019-05-05T02:56:45.329Z,5.63
2019-05-05T02:59:43.473Z,6.13
2019-05-05T03:02:37.040Z,6.00
2019-05-05T03:05:28.594Z,6.83
2019-05-05T03:08:20.755Z,7.07
2019-05-05T03:11:12.013Z,6.50
2019-05-05T03:14:04.997Z,5.63
2019-05-05T03:16:57.860Z,6.00
2019-05-05T03:19:49.146Z,6.80
2019-05-05T03:22:43.430Z,5.93
2019-05-05T03:25:35.382Z,5.77
2019-05-05T03:28:29.475Z,5.77
2019-05-05T03:31:21.573Z,5.37
2019-05-05T03:34:16.359Z,5.40
2019-05-05T03:37:04.871Z,5.40
2019-05-05T03:40:04.158Z,5.70
2019-05-05T03:43:10.199Z,5.37
2019-05-05T03:46:04.616Z,5.30
2019-05-05T03:48:55.477Z,5.50
2019-05-05T03:51:47.690Z,5.33
2019-05-05T03:54:39.880Z,5.40
2019-05-05T03:57:33.901Z,5.40
2019-05-05T04:00:46.089Z,5.40
2019-05-05T04:03:39.132Z,5.37
2019-05-05T04:06:40.301Z,5.67
2019-05-05T04:09:33.986Z,5.70
2019-05-05T04:12:25.534Z,5.30
2019-05-05T04:15:17.141Z,5.80
2019-05-05T04:18:18.060Z,5.90
2019-05-05T04:21:09.727Z,6.03
2019-05-05T04:24:01.383Z,5.73
2019-05-05T04:26:54.456Z,5.50
2019-05-05T04:29:47.015Z,6.07
2019-05-05T04:32:38.008Z,5.53
2019-05-05T04:35:28.760Z,5.40
2019-05-05T04:38:19.632Z,5.37
2019-05-05T04:41:11.586Z,5.20
2019-05-05T04:44:03.988Z,5.27
2019-05-05T04:47:03.791Z,5.30
2019-05-05T04:50:04.452Z,5.63
2019-05-05T04:52:55.497Z,5.53
2019-05-05T04:55:49.508Z,5.73
2019-05-05T04:58:43.925Z,6.03
2019-05-05T05:01:37.009Z,5.57
2019-05-05T05:04:55.711Z,5.60
2019-05-05T05:07:48.026Z,6.17
2019-05-05T05:10:43.692Z,5.70
2019-05-05T05:13:35.271Z,5.90
2019-05-05T05:16:29.962Z,5.87
2019-05-05T05:19:24.252Z,6.23
2019-05-05T05:22:16.690Z,6.53
2019-05-05T05:25:07.980Z,7.63
2019-05-05T05:28:03.980Z,7.80
2019-05-05T05:30:55.282Z,8.73
2019-05-05T05:33:47.694Z,8.43
2019-05-05T05:36:39.577Z,9.47
2019-05-05T05:39:55.018Z,9.37
2019-05-05T05:42:46.729Z,9.47
2019-05-05T05:45:54.250Z,9.63
2019-05-05T05:49:04.621Z,10.20
2019-05-05T05:51:56.525Z,10.63
2019-05-05T05:54:47.909Z,10.13
2019-05-05T05:57:39.908Z,10.17
2019-05-05T06:00:31.750Z,10.40
2019-05-05T06:03:24.520Z,9.57
2019-05-05T06:06:16.064Z,10.37
2019-05-05T06:09:08.194Z,9.40
2019-05-05T06:12:03.435Z,8.87
2019-05-05T06:14:59.254Z,8.93
2019-05-05T06:17:51.559Z,10.23
2019-05-05T06:20:44.562Z,11.83
2019-05-05T06:23:36.777Z,8.70
2019-05-05T06:26:28.712Z,8.07
2019-05-05T06:29:23.941Z,8.47
2019-05-05T06:32:14.647Z,8.83
2019-05-05T06:35:05.427Z,8.90
2019-05-05T06:37:58.670Z,9.73
2019-05-05T06:41:14.685Z,8.67
2019-05-05T06:44:24.754Z,8.63
2019-05-05T06:47:18.277Z,8.50
2019-05-05T06:50:10.544Z,8.17
2019-05-05T06:53:04.259Z,7.87
2019-05-05T06:55:55.123Z,7.80
2019-05-05T06:58:47.914Z,7.93
2019-05-05T07:01:39.882Z,8.47
2019-05-05T07:04:30.998Z,7.00
2019-05-05T07:07:23.502Z,6.97
2019-05-05T07:10:15.231Z,7.30
2019-05-05T07:13:07.700Z,7.10
2019-05-05T07:16:00.139Z,6.70
2019-05-05T07:18:53.789Z,6.60
2019-05-05T07:21:53.606Z,6.33
2019-05-05T07:24:45.821Z,5.07
2019-05-05T07:27:39.164Z,5.33
2019-05-05T07:30:30.379Z,4.70
2019-05-05T07:33:23.770Z,4.40
2019-05-05T07:36:47.929Z,4.70
2019-05-05T07:39:39.095Z,4.30
2019-05-05T07:42:30.870Z,4.70
2019-05-05T07:45:25.560Z,4.80
2019-05-05T07:48:15.520Z,4.57
2019-05-05T07:51:07.732Z,4.03
2019-05-05T07:53:59.197Z,4.10
2019-05-05T07:56:54.044Z,4.53
2019-05-05T07:59:46.094Z,4.47
2019-05-05T08:02:39.021Z,4.30
2019-05-05T08:05:33.558Z,4.30
2019-05-05T08:08:25.835Z,4.47
2019-05-05T08:11:21.091Z,4.20
2019-05-05T08:14:14.581Z,3.40
2019-05-05T08:17:24.400Z,3.20
2019-05-05T08:20:28.140Z,3.73
2019-05-05T08:23:36.168Z,3.80
2019-05-05T08:26:44.092Z,3.63
2019-05-05T08:29:38.594Z,3.70
2019-05-05T08:32:35.480Z,3.00
2019-05-05T08:35:26.012Z,3.17
2019-05-05T08:38:17.066Z,3.10
2019-05-05T08:41:08.805Z,3.40
2019-05-05T08:44:00.032Z,3.20
2019-05-05T08:46:53.902Z,3.20
2019-05-05T08:49:49.759Z,2.80
2019-05-05T08:52:44.431Z,23.27
2019-05-05T08:55:36.576Z,3.17
2019-05-05T08:58:28.252Z,2.70
2019-05-05T09:01:20.795Z,2.63
2019-05-05T09:04:14.164Z,2.40
2019-05-05T09:07:05.305Z,2.27
2019-05-05T09:10:00.742Z,3.43
2019-05-05T09:12:54.341Z,3.30
2019-05-05T09:15:48.192Z,2.93
2019-05-05T09:18:59.082Z,3.33
2019-05-05T09:21:53.988Z,2.83
2019-05-05T09:25:01.586Z,2.43
2019-05-05T09:28:03.886Z,2.47
2019-05-05T09:30:54.069Z,2.67
2019-05-05T09:33:46.604Z,2.67
2019-05-05T09:36:38.420Z,2.90
2019-05-05T09:39:34.569Z,2.80
2019-05-05T09:42:26.829Z,2.93
2019-05-05T09:45:18.726Z,2.97
2019-05-05T09:48:13.730Z,3.20
2019-05-05T09:51:09.314Z,3.00
2019-05-05T09:54:13.316Z,2.60
2019-05-05T09:56:56.149Z,2.70
2019-05-05T09:59:48.292Z,3.00
2019-05-05T10:02:39.580Z,2.90
2019-05-05T10:05:34.091Z,2.70
2019-05-05T10:08:24.734Z,2.97
2019-05-05T10:11:17.197Z,2.90
2019-05-05T10:14:08.293Z,2.87
2019-05-05T10:16:59.640Z,3.10
2019-05-05T10:19:51.495Z,3.10
2019-05-05T10:22:44.326Z,3.17
2019-05-05T10:25:44.729Z,3.10
2019-05-05T10:28:35.976Z,3.50
2019-05-05T10:31:28.111Z,4.80
2019-05-05T10:34:21.043Z,5.00
2019-05-05T10:37:14.300Z,6.70
2019-05-05T10:40:06.781Z,5.30
2019-05-05T10:42:58.898Z,3.70
2019-05-05T10:45:50.699Z,3.10
2019-05-05T10:48:44.452Z,2.80
2019-05-05T10:51:35.069Z,2.80
2019-05-05T10:54:40.550Z,2.63
2019-05-05T10:57:20.514Z,2.90
2019-05-05T11:00:14.879Z,2.77
2019-05-05T11:03:04.610Z,3.00
2019-05-05T11:05:56.084Z,3.10
2019-05-05T11:08:47.672Z,3.20
2019-05-05T11:11:37.915Z,3.03
2019-05-05T11:14:28.566Z,3.20
2019-05-05T11:17:20.999Z,5.10
2019-05-05T11:20:14.348Z,4.83
2019-05-05T11:23:07.202Z,4.20
2019-05-05T11:26:00.745Z,3.13
2019-05-05T11:28:56.376Z,3.90
2019-05-05T11:31:49.562Z,3.30
2019-05-05T11:34:41.651Z,3.07
2019-05-05T11:37:34.200Z,3.27
2019-05-05T11:40:34.375Z,2.87
2019-05-05T11:43:28.577Z,3.13
2019-05-05T11:46:19.616Z,3.70
2019-05-05T11:49:13.891Z,3.63
2019-05-05T11:52:04.914Z,3.60
2019-05-05T11:55:08.896Z,3.20
2019-05-05T11:57:49.296Z,3.03
2019-05-05T12:00:41.034Z,3.10
2019-05-05T12:03:37.706Z,3.40
2019-05-05T12:06:28.869Z,2.90
2019-05-05T12:09:26.155Z,7.13
2019-05-05T12:12:18.783Z,3.70
2019-05-05T12:15:10.333Z,3.60
2019-05-05T12:18:03.841Z,5.60
2019-05-05T12:20:55.507Z,3.73
2019-05-05T12:23:48.006Z,3.03
2019-05-05T12:26:48.232Z,3.27
2019-05-05T12:29:45.383Z,3.23
2019-05-05T12:32:36.757Z,3.50
2019-05-05T12:35:28.804Z,3.50
2019-05-05T12:38:20.712Z,2.90
2019-05-05T12:41:14.774Z,3.80
2019-05-05T12:44:14.601Z,3.70
2019-05-05T12:47:30.802Z,4.07
2019-05-05T12:50:22.140Z,4.70
2019-05-05T12:53:15.029Z,4.30
2019-05-05T12:56:08.369Z,3.17
2019-05-05T12:59:05.115Z,2.87
2019-05-05T13:01:57.194Z,2.73
2019-05-05T13:04:49.729Z,2.80
2019-05-05T13:07:41.792Z,2.60
2019-05-05T13:10:33.674Z,2.90
2019-05-05T13:13:26.515Z,2.90
2019-05-05T13:16:18.953Z,2.90
2019-05-05T13:19:18.715Z,2.67
2019-05-05T13:22:35.928Z,3.53
2019-05-05T13:25:55.317Z,2.47
2019-05-05T13:28:36.883Z,2.30
2019-05-05T13:31:28.470Z,2.50
2019-05-05T13:34:19.433Z,2.70
2019-05-05T13:37:10.569Z,2.43
2019-05-05T13:40:01.723Z,2.40
2019-05-05T13:42:54.805Z,2.83
2019-05-05T13:45:54.394Z,2.50
2019-05-05T13:48:47.223Z,2.60
2019-05-05T13:51:39.686Z,2.70
2019-05-05T13:54:33.558Z,2.53
2019-05-05T13:57:25.362Z,2.83
2019-05-05T14:00:18.810Z,2.47
2019-05-05T14:03:10.539Z,2.37
2019-05-05T14:06:04.689Z,2.67
2019-05-05T14:08:57.460Z,2.50
2019-05-05T14:11:50.695Z,2.30
2019-05-05T14:14:44.048Z,2.33
2019-05-05T14:17:36.143Z,2.10
2019-05-05T14:20:28.980Z,2.07
2019-05-05T14:23:21.382Z,2.80
2019-05-05T14:26:25.019Z,1.97
2019-05-05T14:29:09.360Z,2.10
2019-05-05T14:32:01.769Z,2.00
2019-05-05T14:35:01.093Z,3.23
2019-05-05T14:37:56.424Z,27.77
2019-05-05T14:40:47.611Z,9.93
2019-05-05T14:43:39.511Z,7.53
2019-05-05T14:46:34.065Z,3.20
2019-05-05T14:49:25.608Z,2.70
2019-05-05T14:52:16.433Z,3.07
2019-05-05T14:55:08.486Z,2.97
2019-05-05T14:58:00.235Z,2.90
2019-05-05T15:00:51.535Z,2.77
2019-05-05T15:03:44.483Z,2.70
2019-05-05T15:06:41.357Z,4.20
2019-05-05T15:09:54.839Z,2.27
2019-05-05T15:12:50.072Z,2.00
2019-05-05T15:15:40.578Z,2.00
2019-05-05T15:18:31.990Z,2.30
2019-05-05T15:21:23.729Z,1.80
2019-05-05T15:24:15.405Z,2.07
2019-05-05T15:27:08.020Z,1.93
2019-05-05T15:29:59.841Z,2.20
2019-05-05T15:32:54.141Z,1.63
2019-05-05T15:35:46.608Z,1.80
2019-05-05T15:38:38.993Z,2.00
2019-05-05T15:41:31.440Z,2.10
2019-05-05T15:44:24.372Z,2.27
2019-05-05T15:47:16.816Z,2.67
2019-05-05T15:50:09.847Z,2.20
2019-05-05T15:53:01.061Z,2.20
2019-05-05T15:55:54.025Z,2.10
2019-05-05T15:58:45.377Z,2.07
2019-05-05T16:01:35.710Z,2.00
2019-05-05T16:04:27.461Z,2.47
2019-05-05T16:07:17.531Z,3.40
2019-05-05T16:10:08.984Z,2.30
2019-05-05T16:12:59.731Z,2.00
2019-05-05T16:16:18.656Z,2.40
2019-05-05T16:19:16.547Z,2.20
2019-05-05T16:22:11.124Z,2.20
2019-05-05T16:25:14.295Z,2.50
2019-05-05T16:28:06.063Z,2.37
2019-05-05T16:30:57.442Z,2.80
2019-05-05T16:33:49.803Z,2.07
2019-05-05T16:36:44.016Z,2.50
2019-05-05T16:39:35.989Z,1.97
2019-05-05T16:42:27.285Z,2.17
2019-05-05T16:45:19.370Z,2.03
2019-05-05T16:48:12.211Z,2.20
2019-05-05T16:51:05.206Z,2.10
2019-05-05T16:53:58.324Z,2.20
2019-05-05T16:56:50.801Z,2.17
2019-05-05T16:59:44.358Z,2.50
2019-05-05T17:02:35.989Z,2.50
2019-05-05T17:05:27.855Z,2.37
2019-05-05T17:08:19.245Z,2.07
2019-05-05T17:11:11.353Z,1.90
2019-05-05T17:14:10.328Z,1.90
2019-05-05T17:17:19.594Z,1.90
2019-05-05T17:20:14.940Z,2.20
2019-05-05T17:23:09.303Z,1.90
2019-05-05T17:26:02.363Z,1.93
2019-05-05T17:28:54.146Z,2.30
2019-05-05T17:31:46.420Z,1.97
2019-05-05T17:34:37.824Z,1.83
2019-05-05T17:37:28.459Z,1.97
2019-05-05T17:40:29.822Z,1.97
2019-05-05T17:43:38.425Z,1.80
2019-05-05T17:46:38.875Z,1.90
2019-05-05T17:49:50.019Z,1.80
2019-05-05T17:53:05.279Z,1.97
2019-05-05T17:55:57.978Z,1.63
2019-05-05T17:58:49.772Z,1.90
2019-05-05T18:01:44.119Z,2.17
2019-05-05T18:04:34.895Z,18.07
2019-05-05T18:07:46.254Z,3.30
2019-05-05T18:10:43.159Z,2.40
2019-05-05T18:13:47.604Z,2.30
2019-05-05T18:16:39.141Z,2.07
2019-05-05T18:19:31.343Z,2.40
2019-05-05T18:22:21.658Z,2.43
2019-05-05T18:25:14.230Z,2.33
2019-05-05T18:28:15.712Z,3.03
2019-05-05T18:30:56.675Z,2.80
2019-05-05T18:33:48.188Z,2.40
2019-05-05T18:36:40.746Z,2.57
2019-05-05T18:39:34.263Z,3.10
2019-05-05T18:42:25.105Z,3.03
2019-05-05T18:45:16.395Z,2.90
2019-05-05T18:48:07.625Z,3.10
2019-05-05T18:50:58.942Z,2.50
2019-05-05T18:53:50.996Z,2.27
2019-05-05T18:56:44.023Z,2.60
2019-05-05T18:59:35.548Z,2.53
2019-05-05T19:02:47.876Z,2.60
2019-05-05T19:05:49.123Z,2.57
2019-05-05T19:08:54.121Z,2.77
2019-05-05T19:11:40.202Z,2.60
2019-05-05T19:14:31.536Z,2.93
2019-05-05T19:17:23.645Z,2.73
2019-05-05T19:20:27.471Z,3.30
2019-05-05T19:23:17.867Z,3.03
2019-05-05T19:26:09.744Z,3.00
2019-05-05T19:29:04.416Z,2.80
2019-05-05T19:31:54.823Z,3.10
2019-05-05T19:34:47.893Z,2.87
2019-05-05T19:37:39.530Z,2.67
2019-05-05T19:40:31.404Z,2.70
2019-05-05T19:43:24.554Z,3.13
2019-05-05T19:46:16.067Z,2.83
2019-05-05T19:49:20.514Z,2.90
2019-05-05T19:52:13.571Z,3.10
2019-05-05T19:55:06.379Z,2.73
2019-05-05T19:57:58.590Z,3.20
2019-05-05T20:00:49.946Z,3.40
2019-05-05T20:03:44.068Z,3.10
2019-05-05T20:06:34.145Z,3.30
2019-05-05T20:09:26.072Z,3.23
2019-05-05T20:12:17.097Z,3.13
2019-05-05T20:15:11.306Z,3.07
2019-05-05T20:18:04.660Z,3.20
2019-05-05T20:21:03.966Z,3.33
2019-05-05T20:23:49.724Z,3.10
2019-05-05T20:26:41.227Z,3.30
2019-05-05T20:29:35.039Z,3.30
2019-05-05T20:32:34.061Z,3.20
2019-05-05T20:35:43.662Z,3.10
2019-05-05T20:38:44.185Z,2.90
2019-05-05T20:41:35.615Z,3.50
2019-05-05T20:44:28.339Z,3.43
2019-05-05T20:47:19.990Z,3.50
2019-05-05T20:50:10.883Z,3.77
2019-05-05T20:53:00.878Z,3.43
2019-05-05T20:55:54.453Z,3.10
2019-05-05T20:58:46.485Z,3.50
2019-05-05T21:01:37.475Z,3.20
2019-05-05T21:04:29.499Z,3.87
2019-05-05T21:07:23.514Z,3.33
2019-05-05T21:10:14.375Z,3.43
2019-05-05T21:13:05.478Z,3.40
2019-05-05T21:15:57.408Z,3.57
2019-05-05T21:18:48.370Z,3.30
2019-05-05T21:21:42.228Z,3.83
2019-05-05T21:24:33.529Z,3.73
2019-05-05T21:27:25.213Z,3.53
2019-05-05T21:30:16.285Z,3.93
2019-05-05T21:33:06.609Z,3.30
2019-05-05T21:35:58.035Z,3.63
2019-05-05T21:38:50.469Z,3.67
2019-05-05T21:41:43.812Z,3.50
2019-05-05T21:44:36.290Z,3.50
2019-05-05T21:47:27.012Z,3.70
2019-05-05T21:50:19.990Z,3.80
2019-05-05T21:53:14.699Z,3.60
2019-05-05T21:56:24.814Z,3.47
2019-05-05T21:59:14.269Z,3.90
2019-05-05T22:02:05.935Z,4.33
2019-05-05T22:04:57.607Z,4.30
2019-05-05T22:07:49.299Z,4.23
2019-05-05T22:10:39.384Z,4.20
2019-05-05T22:13:29.195Z,4.63
2019-05-05T22:16:21.344Z,4.20
2019-05-05T22:19:14.615Z,4.33
2019-05-05T22:22:07.793Z,4.33
2019-05-05T22:24:57.686Z,4.50
2019-05-05T22:27:49.538Z,4.10
2019-05-05T22:30:40.488Z,4.50
2019-05-05T22:33:31.537Z,5.00
2019-05-05T22:36:24.403Z,4.83
2019-05-05T22:39:16.513Z,4.60
2019-05-05T22:42:04.773Z,5.00
2019-05-05T22:44:56.519Z,4.73
2019-05-05T22:47:51.441Z,4.60
2019-05-05T22:50:43.841Z,4.77
2019-05-05T22:53:34.675Z,4.97
2019-05-05T22:56:24.821Z,4.43
2019-05-05T22:59:14.348Z,4.40
2019-05-05T23:02:03.949Z,5.03
2019-05-05T23:05:07.349Z,4.80
2019-05-05T23:07:57.662Z,4.50
2019-05-05T23:10:49.490Z,4.80
2019-05-05T23:13:39.966Z,4.23
2019-05-05T23:16:37.478Z,4.50
2019-05-05T23:19:33.633Z,4.87
2019-05-05T23:22:37.308Z,4.30
2019-05-05T23:25:32.343Z,4.97
2019-05-05T23:28:23.718Z,4.70
2019-05-05T23:31:16.025Z,4.90
2019-05-05T23:34:04.476Z,4.57
2019-05-05T23:36:54.948Z,4.37
2019-05-05T23:39:46.325Z,4.80
2019-05-05T23:42:35.798Z,4.50
2019-05-05T23:45:25.339Z,4.60
2019-05-05T23:48:17.522Z,4.27
2019-05-05T23:51:07.779Z,4.93
2019-05-05T23:53:56.896Z,5.10
2019-05-05T23:56:50.959Z,5.50
2019-05-05T23:59:40.782Z,5.03
